Time;durP1;ratioP1;P1;durP2;ratioP2;P2;SDS_P1;SDS_P2;PMS_P1;PMS_P2;Temp;Humidity;BMP_temperature;BMP_pressure;BME280_temperature;BME280_humidity;BME280_pressure;Samples;Min_cycle;Max_cycle;Signal;HPM_P1;HPM_P2
2023/01/13 00:00:58;;;;;;;0.95;0.88;;;;;;;6.94;99.58;97763.34;5059781;28;20125;-79
2023/01/13 00:03:24;;;;;;;0.60;0.60;;;;;;;6.94;100.00;97759.91;5059624;28;20068;-79
2023/01/13 00:05:50;;;;;;;0.75;0.75;;;;;;;6.93;99.94;97761.75;5060229;28;20080;-79
2023/01/13 00:08:15;;;;;;;0.70;0.70;;;;;;;6.98;99.52;97751.19;5056629;28;20032;-79
2023/01/13 00:10:41;;;;;;;0.50;0.50;;;;;;;6.99;99.34;97763.38;5060083;28;20020;-79
2023/01/13 00:13:06;;;;;;;0.82;0.82;;;;;;;7.01;99.50;97752.53;5066534;28;20040;-80
2023/01/13 00:15:32;;;;;;;0.80;0.52;;;;;;;6.92;99.80;97743.44;5040259;28;20028;-80
2023/01/13 00:17:58;;;;;;;2.35;0.75;;;;;;;7.00;100.00;97748.28;5050395;28;21398;-80
2023/01/13 00:20:23;;;;;;;0.65;0.65;;;;;;;6.98;99.61;97737.91;5055558;28;20024;-80
2023/01/13 00:22:48;;;;;;;1.73;0.80;;;;;;;6.98;100.00;97759.13;5057431;28;20024;-80
2023/01/13 00:25:14;;;;;;;1.50;0.98;;;;;;;7.07;99.71;97747.03;5027031;28;20033;-80
2023/01/13 00:27:39;;;;;;;2.30;1.02;;;;;;;7.14;100.00;97749.47;5038892;28;20497;-80
2023/01/13 00:30:06;;;;;;;2.47;0.68;;;;;;;7.11;99.43;97753.41;5069378;28;20035;-79
2023/01/13 00:32:31;;;;;;;2.83;1.10;;;;;;;6.96;99.42;97742.69;5066333;28;20050;-80
2023/01/13 00:34:57;;;;;;;3.08;1.00;;;;;;;7.05;99.90;97749.13;5078590;28;20028;-80
2023/01/13 00:37:23;;;;;;;0.90;0.88;;;;;;;7.01;99.75;97745.34;5063348;28;20515;-80
2023/01/13 00:39:50;;;;;;;0.85;0.55;;;;;;;7.03;99.65;97751.22;5028042;28;20124;-80
2023/01/13 00:45:00;;;;;;;2.92;1.02;;;;;;;6.97;100.00;97740.84;5043096;28;20090;-79
2023/01/13 00:47:25;;;;;;;2.00;0.93;;;;;;;7.00;99.69;97721.75;5037666;28;20040;-79
2023/01/13 00:49:50;;;;;;;0.73;0.73;;;;;;;6.94;99.88;97731.53;5058232;28;20093;-79
2023/01/13 00:52:16;;;;;;;1.27;1.17;;;;;;;7.01;99.47;97713.53;5032960;28;20330;-79
2023/01/13 00:54:41;;;;;;;1.17;1.17;;;;;;;7.08;99.12;97719.41;5060220;28;20412;-79
2023/01/13 00:57:07;;;;;;;0.80;0.80;;;;;;;7.15;99.39;97724.50;5059286;28;20032;-80
2023/01/13 00:59:33;;;;;;;1.08;1.02;;;;;;;7.11;98.41;97726.06;5026140;28;20025;-80
2023/01/13 01:01:58;;;;;;;1.48;1.25;;;;;;;7.11;98.81;97723.44;5042430;28;20040;-79
2023/01/13 01:04:23;;;;;;;1.30;1.20;;;;;;;7.12;98.76;97720.50;5041273;28;20036;-79
2023/01/13 01:06:49;;;;;;;0.98;0.80;;;;;;;7.10;99.08;97725.28;5032954;28;20040;-80
2023/01/13 01:09:15;;;;;;;0.80;0.80;;;;;;;7.10;99.46;97719.97;5041071;28;20668;-80
2023/01/13 01:11:41;;;;;;;1.73;0.95;;;;;;;7.10;99.21;97732.47;5060837;28;20035;-79
2023/01/13 01:14:10;;;;;;;1.02;0.73;;;;;;;7.10;99.07;97713.88;5056517;28;20039;-80
2023/01/13 01:16:38;;;;;;;1.02;1.00;;;;;;;7.09;99.31;97718.38;5032585;28;20396;-79
2023/01/13 01:19:04;;;;;;;0.60;0.60;;;;;;;7.12;98.60;97709.91;5066063;28;20425;-79
2023/01/13 01:21:30;;;;;;;0.80;0.70;;;;;;;7.14;99.24;97713.09;5065984;28;20036;-80
2023/01/13 01:23:59;;;;;;;0.80;0.70;;;;;;;7.13;99.17;97710.72;5040638;28;20399;-80
2023/01/13 01:26:26;;;;;;;2.28;0.70;;;;;;;7.16;98.99;97703.06;5046381;28;20021;-79
2023/01/13 01:28:52;;;;;;;1.45;0.80;;;;;;;7.12;98.28;97701.94;5068931;28;20111;-79
2023/01/13 01:31:23;;;;;;;1.70;0.60;;;;;;;7.12;98.73;97701.16;5067384;28;20712;-79
2023/01/13 01:33:49;;;;;;;0.95;0.93;;;;;;;7.02;99.71;97707.19;5058455;28;20033;-79
2023/01/13 01:36:17;;;;;;;0.70;0.70;;;;;;;7.05;99.53;97709.34;5043308;28;20451;-79
2023/01/13 01:38:42;;;;;;;1.33;0.68;;;;;;;7.07;98.63;97701.13;5066586;28;20036;-79
2023/01/13 01:41:14;;;;;;;0.70;0.70;;;;;;;6.98;99.74;97690.16;5051546;28;20455;-79
2023/01/13 01:44:04;;;;;;;1.52;0.80;;;;;;;7.14;99.68;97704.34;5059506;28;20107;-80
2023/01/13 01:46:37;;;;;;;0.70;0.70;;;;;;;7.10;99.59;97705.94;5049509;28;20519;-79
2023/01/13 01:49:17;;;;;;;0.70;0.60;;;;;;;7.12;98.98;97696.63;5039196;28;20496;-79
2023/01/13 01:51:51;;;;;;;2.72;0.70;;;;;;;7.15;98.48;97695.31;5063943;28;20508;-79
2023/01/13 01:54:38;;;;;;;0.38;0.38;;;;;;;7.09;98.26;97691.84;5034185;28;20120;-79
2023/01/13 01:57:07;;;;;;;0.80;0.57;;;;;;;6.99;98.81;97685.69;5059115;28;20035;-80
2023/01/13 01:59:35;;;;;;;1.08;0.57;;;;;;;7.02;99.27;97683.31;5048134;28;20061;-79
2023/01/13 02:02:01;;;;;;;1.33;0.80;;;;;;;7.08;98.96;97671.66;5048400;28;20040;-79
2023/01/13 02:04:31;;;;;;;0.63;0.40;;;;;;;7.06;98.82;97678.28;5056345;28;20043;-79
2023/01/13 02:06:57;;;;;;;0.52;0.50;;;;;;;7.00;99.10;97685.41;5053888;28;20096;-79
2023/01/13 02:09:25;;;;;;;3.33;0.75;;;;;;;6.92;99.90;97669.97;5073050;28;20498;-79
2023/01/13 02:14:35;;;;;;;0.60;0.60;;;;;;;6.92;99.72;97667.31;5070858;28;20075;-80
2023/01/13 02:17:19;;;;;;;2.17;0.82;;;;;;;6.99;99.48;97677.72;5057029;28;20068;-79
2023/01/13 02:20:23;;;;;;;2.28;0.68;;;;;;;7.04;98.80;97678.53;5054706;28;20124;-79
2023/01/13 02:24:52;;;;;;;0.80;0.43;;;;;;;7.00;100.00;97676.66;4987145;28;20034;-79
2023/01/13 02:26:01;;;;;;;0.50;0.50;;;;;;;7.04;99.36;97675.09;4984517;28;20224;-79
2023/01/13 02:31:40;;;;;;;0.30;0.30;;;;;;;7.00;99.83;97669.50;5021638;28;20281;-79
2023/01/13 02:31:40;;;;;;;0.80;0.50;;;;;;;7.05;99.60;97666.88;5066327;28;20079;-79
2023/01/13 02:34:10;;;;;;;0.60;0.60;;;;;;;7.06;99.59;97665.81;5049475;28;20032;-80
2023/01/13 02:37:03;;;;;;;0.30;0.30;;;;;;;7.04;99.60;97680.38;5067526;28;20059;-80
2023/01/13 02:39:47;;;;;;;0.70;0.70;;;;;;;7.11;99.24;97665.06;5065496;28;20111;-80
2023/01/13 02:45:30;;;;;;;0.55;0.55;;;;;;;7.06;99.46;97668.47;5063192;28;20109;-80
2023/01/13 02:47:58;;;;;;;0.73;0.60;;;;;;;7.19;99.33;97683.16;5059186;28;20044;-80
2023/01/13 02:50:48;;;;;;;0.55;0.55;;;;;;;7.29;99.00;97673.44;5087950;28;20028;-80
2023/01/13 02:53:19;;;;;;;0.70;0.50;;;;;;;7.24;99.11;97676.03;5044314;28;20071;-80
2023/01/13 02:55:49;;;;;;;0.55;0.55;;;;;;;7.21;98.72;97684.50;5050307;28;20032;-80
2023/01/13 02:58:18;;;;;;;0.60;0.60;;;;;;;7.31;98.38;97689.09;5044851;28;20039;-80
2023/01/13 03:00:45;;;;;;;0.40;0.40;;;;;;;7.25;99.18;97690.13;5046688;28;20041;-80
2023/01/13 03:03:10;;;;;;;0.40;0.40;;;;;;;7.07;99.74;97675.41;5045336;28;20175;-80
2023/01/13 03:05:36;;;;;;;0.55;0.52;;;;;;;7.08;99.76;97687.59;5052443;28;20452;-80
2023/01/13 03:08:14;;;;;;;0.22;0.22;;;;;;;7.00;100.00;97674.81;5054044;28;20550;-80
2023/01/13 03:10:58;;;;;;;1.60;0.40;;;;;;;7.00;100.00;97668.69;5059536;28;20032;-80
2023/01/13 03:13:41;;;;;;;2.15;0.35;;;;;;;7.05;99.97;97677.50;5059758;28;20039;-80
2023/01/13 03:16:25;;;;;;;1.77;0.50;;;;;;;7.03;100.00;97684.91;5061470;28;20032;-79
2023/01/13 03:19:27;;;;;;;0.30;0.30;;;;;;;7.03;99.68;97695.53;5045228;28;20476;-80
2023/01/13 03:22:06;;;;;;;0.28;0.28;;;;;;;6.98;99.75;97689.38;5064084;28;20028;-80
2023/01/13 03:24:39;;;;;;;0.20;0.20;;;;;;;6.87;99.50;97685.03;5060513;28;20025;-80
2023/01/13 03:27:17;;;;;;;0.40;0.40;;;;;;;6.89;99.51;97693.53;5043648;28;20178;-80
2023/01/13 03:29:48;;;;;;;0.50;0.38;;;;;;;6.98;99.36;97694.66;5054222;28;20028;-80
2023/01/13 03:32:31;;;;;;;1.15;0.65;;;;;;;6.92;98.56;97723.03;5052387;28;20031;-80
2023/01/13 03:35:17;;;;;;;0.28;0.13;;;;;;;6.88;99.02;97718.47;5057932;28;20448;-80
2023/01/13 03:37:49;;;;;;;0.63;0.30;;;;;;;6.95;98.93;97719.84;5043716;28;20750;-80
2023/01/13 03:40:24;;;;;;;0.38;0.20;;;;;;;6.95;98.93;97711.09;5040914;28;20607;-80
2023/01/13 03:45:41;;;;;;;0.20;0.20;;;;;;;6.80;99.16;97720.53;5060383;28;20030;-80
2023/01/13 03:48:12;;;;;;;0.30;0.30;;;;;;;6.80;98.85;97679.94;5048495;28;20025;-79
2023/01/13 03:50:44;;;;;;;0.50;0.30;;;;;;;6.86;98.95;97700.13;5037292;28;20340;-79
2023/01/13 03:53:16;;;;;;;1.08;0.45;;;;;;;6.77;99.03;97699.03;5062081;28;20024;-80
2023/01/13 03:55:57;;;;;;;0.30;0.30;;;;;;;6.91;98.31;97705.50;5064121;28;20309;-80
2023/01/13 03:58:29;;;;;;;0.30;0.30;;;;;;;6.86;97.89;97712.63;5044039;28;20031;-79
2023/01/13 04:01:16;;;;;;;1.77;0.40;;;;;;;6.83;98.46;97724.53;5059360;28;20422;-80
2023/01/13 04:03:47;;;;;;;1.45;0.40;;;;;;;6.91;98.31;97732.00;5058011;28;20025;-79
2023/01/13 04:06:28;;;;;;;1.50;0.50;;;;;;;6.88;97.87;97734.38;5058651;28;20032;-80
2023/01/13 04:09:01;;;;;;;1.90;0.65;;;;;;;6.86;98.27;97720.56;5042095;28;20031;-80
2023/01/13 04:11:58;;;;;;;0.43;0.38;;;;;;;6.82;97.67;97699.84;5054603;28;20036;-80
2023/01/13 04:14:26;;;;;;;1.27;0.60;;;;;;;6.69;97.76;97686.19;5030661;28;20144;-80
2023/01/13 04:16:52;;;;;;;2.17;0.50;;;;;;;6.90;98.04;97695.94;5057973;28;20505;-80
2023/01/13 04:19:18;;;;;;;3.28;2.60;;;;;;;6.84;97.89;97701.47;5024506;28;20043;-80
2023/01/13 04:21:43;;;;;;;3.47;1.17;;;;;;;6.78;97.31;97703.25;5036470;28;20029;-80
2023/01/13 04:24:08;;;;;;;3.30;0.85;;;;;;;6.90;97.47;97730.44;5035275;28;20384;-80
2023/01/13 04:26:34;;;;;;;1.45;0.75;;;;;;;6.77;97.10;97720.25;5055640;28;20059;-80
2023/01/13 04:28:59;;;;;;;0.63;0.52;;;;;;;6.86;96.66;97737.25;5066504;28;20024;-80
2023/01/13 04:31:25;;;;;;;2.92;0.75;;;;;;;6.80;96.72;97725.81;5069656;28;20028;-80
2023/01/13 04:33:50;;;;;;;1.38;0.73;;;;;;;6.61;96.94;97666.28;5054373;28;20036;-81
2023/01/13 04:36:16;;;;;;;1.48;0.38;;;;;;;6.80;97.70;97696.66;5031715;28;20033;-81
2023/01/13 04:38:41;;;;;;;0.30;0.30;;;;;;;6.75;97.31;97709.06;5040390;28;20024;-80
2023/01/13 04:41:06;;;;;;;7.63;0.90;;;;;;;6.71;96.97;97721.22;5065133;28;20075;-80
2023/01/13 04:43:32;;;;;;;0.40;0.40;;;;;;;6.63;96.82;97705.78;5045052;28;20278;-80
2023/01/13 04:45:57;;;;;;;1.75;0.60;;;;;;;6.73;97.19;97684.63;5068946;28;20035;-80
2023/01/13 04:48:22;;;;;;;2.35;0.60;;;;;;;6.62;97.12;97648.47;5041890;28;20063;-79
2023/01/13 04:50:48;;;;;;;1.55;0.60;;;;;;;6.78;96.70;97663.47;5059387;28;20036;-80
2023/01/13 04:53:13;;;;;;;2.15;0.73;;;;;;;6.76;96.52;97670.91;5060708;28;20037;-80
2023/01/13 04:55:38;;;;;;;1.13;1.02;;;;;;;6.70;96.22;97695.78;5034239;28;20082;-80
2023/01/13 04:58:05;;;;;;;1.08;0.95;;;;;;;6.68;96.51;97698.66;5053725;28;20074;-80
2023/01/13 05:00:31;;;;;;;3.25;0.57;;;;;;;6.67;96.41;97704.22;5060672;28;20029;-80
2023/01/13 05:02:58;;;;;;;0.65;0.55;;;;;;;6.64;96.29;97699.44;5067178;28;20379;-80
2023/01/13 05:05:24;;;;;;;1.75;0.40;;;;;;;6.58;95.32;97692.47;5049265;28;20829;-80
2023/01/13 05:07:50;;;;;;;0.93;0.43;;;;;;;6.67;95.51;97667.91;5043497;28;20446;-80
2023/01/13 05:10:15;;;;;;;1.98;0.68;;;;;;;6.66;95.63;97674.25;5044058;28;20127;-80
2023/01/13 05:18:09;;;;;;;1.40;0.63;;;;;;;6.53;95.84;97671.22;5054768;28;20074;-80
2023/01/13 05:20:34;;;;;;;5.93;0.95;;;;;;;6.54;94.62;97649.75;5021578;28;20052;-80
2023/01/13 05:25:46;;;;;;;1.65;0.43;;;;;;;6.55;94.35;97667.25;5070736;28;20031;-80
2023/01/13 05:28:12;;;;;;;4.53;1.00;;;;;;;6.48;95.09;97689.72;5044558;28;20510;-79
2023/01/13 05:30:42;;;;;;;2.35;1.10;;;;;;;6.52;94.91;97709.38;5046644;28;20119;-79
2023/01/13 05:33:14;;;;;;;2.28;0.73;;;;;;;6.41;94.51;97684.63;5047956;28;20032;-79
2023/01/13 05:35:41;;;;;;;1.85;0.98;;;;;;;6.46;95.18;97675.94;5066787;28;20687;-79
2023/01/13 05:38:06;;;;;;;3.53;0.77;;;;;;;6.35;94.57;97671.56;5040780;28;20039;-79
2023/01/13 05:43:19;;;;;;;0.82;0.70;;;;;;;6.35;94.25;97676.88;5067312;28;20035;-79
2023/01/13 05:45:51;;;;;;;3.05;0.88;;;;;;;6.44;93.87;97693.94;5058909;28;20036;-79
2023/01/13 05:48:18;;;;;;;0.93;0.50;;;;;;;6.46;93.39;97713.03;5083974;28;20392;-79
2023/01/13 05:50:44;;;;;;;1.27;0.80;;;;;;;6.35;92.96;97700.72;5068040;28;20032;-79
2023/01/13 05:53:10;;;;;;;0.98;0.73;;;;;;;6.44;93.73;97723.09;5056630;28;20036;-79
2023/01/13 05:55:40;;;;;;;2.67;1.52;;;;;;;6.37;93.58;97738.38;5048605;28;20572;-79
2023/01/13 05:58:07;;;;;;;4.13;1.08;;;;;;;6.30;94.28;97751.00;5046986;28;20025;-79
2023/01/13 06:00:32;;;;;;;3.28;0.70;;;;;;;6.29;93.24;97741.47;5074504;28;20427;-79
2023/01/13 06:02:58;;;;;;;4.07;0.98;;;;;;;6.25;93.38;97745.63;5065070;28;20039;-79
2023/01/13 06:05:23;;;;;;;3.03;0.57;;;;;;;6.28;93.20;97731.91;5028967;28;20678;-79
2023/01/13 06:07:49;;;;;;;2.47;0.85;;;;;;;6.35;93.57;97741.28;5068569;28;20043;-79
2023/01/13 06:10:15;;;;;;;1.55;0.70;;;;;;;6.17;93.22;97733.63;5057390;28;20472;-79
2023/01/13 06:12:41;;;;;;;2.65;0.75;;;;;;;6.29;92.73;97739.59;5053186;28;20028;-79
2023/01/13 06:15:06;;;;;;;5.30;1.20;;;;;;;6.30;92.96;97721.84;5062895;28;20107;-79
2023/01/13 06:17:32;;;;;;;3.83;1.00;;;;;;;6.18;92.26;97718.56;5066026;28;20307;-79
2023/01/13 06:19:57;;;;;;;0.88;0.82;;;;;;;6.11;92.75;97676.38;5064430;28;20029;-79
2023/01/13 06:22:27;;;;;;;5.38;0.70;;;;;;;6.26;92.20;97696.91;5072328;28;20070;-79
2023/01/13 06:24:53;;;;;;;3.08;1.08;;;;;;;6.27;92.83;97703.81;5074550;28;20112;-79
2023/01/13 06:27:20;;;;;;;1.48;0.82;;;;;;;6.28;92.15;97698.28;5044445;28;20083;-79
2023/01/13 06:29:46;;;;;;;3.30;0.82;;;;;;;6.23;91.78;97715.94;5051561;28;20103;-79
2023/01/13 06:32:26;;;;;;;6.55;1.15;;;;;;;6.09;92.19;97720.03;5054478;28;20115;-79
2023/01/13 06:35:01;;;;;;;4.55;1.00;;;;;;;6.19;92.19;97707.69;5049480;28;20021;-79
2023/01/13 06:37:28;;;;;;;5.15;0.73;;;;;;;6.14;92.08;97725.41;5068775;28;20051;-79
2023/01/13 06:39:57;;;;;;;4.82;1.15;;;;;;;6.06;91.63;97723.97;5067001;28;20039;-79
2023/01/13 06:45:09;;;;;;;2.97;1.13;;;;;;;6.15;92.25;97733.09;5070259;28;20511;-79
2023/01/13 06:47:35;;;;;;;2.03;1.05;;;;;;;6.00;90.71;97741.66;5059622;28;20063;-79
2023/01/13 06:50:01;;;;;;;6.35;1.27;;;;;;;6.09;91.39;97733.28;5055312;28;20123;-79
2023/01/13 06:52:29;;;;;;;5.22;1.00;;;;;;;6.09;92.11;97733.28;5067546;28;20056;-79
2023/01/13 06:54:55;;;;;;;2.22;0.73;;;;;;;5.95;91.40;97728.34;5039680;28;20033;-79
2023/01/13 06:57:20;;;;;;;2.38;1.08;;;;;;;6.01;91.94;97713.31;5061326;28;20037;-79
2023/01/13 06:59:46;;;;;;;4.72;1.20;;;;;;;5.96;92.38;97708.75;5042470;28;20033;-79
2023/01/13 07:02:11;;;;;;;5.10;1.60;;;;;;;5.92;91.93;97706.84;5050045;28;20047;-79
2023/01/13 07:04:36;;;;;;;1.92;0.77;;;;;;;6.06;91.48;97710.72;5062098;28;20060;-79
2023/01/13 07:07:02;;;;;;;5.15;1.15;;;;;;;5.96;92.15;97711.41;5080755;28;20035;-79
2023/01/13 07:09:27;;;;;;;2.05;1.20;;;;;;;5.90;91.73;97701.78;5087686;28;20029;-79
2023/01/13 07:11:52;;;;;;;5.70;1.10;;;;;;;5.98;91.17;97688.13;5071687;28;20453;-79
2023/01/13 07:15:18;;;;;;;2.13;0.85;;;;;;;5.97;91.88;97686.53;5031313;28;20040;-79
2023/01/13 07:17:12;;;;;;;5.47;1.42;;;;;;;5.91;90.95;97670.81;5060371;28;20048;-79
2023/01/13 07:19:38;;;;;;;1.58;0.85;;;;;;;5.94;91.28;97700.25;5057447;28;20387;-79
2023/01/13 07:22:03;;;;;;;8.20;1.55;;;;;;;5.73;90.01;97694.91;5075169;28;20028;-79
2023/01/13 07:24:29;;;;;;;5.20;1.30;;;;;;;5.82;91.56;97706.69;5064667;28;20035;-78
2023/01/13 07:26:54;;;;;;;5.05;1.52;;;;;;;5.71;90.62;97686.44;5066006;28;20056;-79
2023/01/13 07:29:19;;;;;;;7.25;1.27;;;;;;;5.80;90.71;97706.94;5073179;28;20028;-78
2023/01/13 07:31:45;;;;;;;7.65;1.48;;;;;;;5.71;90.51;97702.31;5036247;28;20054;-78
2023/01/13 07:34:11;;;;;;;6.68;1.10;;;;;;;5.75;91.49;97711.34;5053244;28;20025;-78
2023/01/13 07:36:36;;;;;;;8.20;1.40;;;;;;;5.67;91.52;97696.72;5070604;28;21010;-78
2023/01/13 07:39:02;;;;;;;5.75;1.10;;;;;;;5.60;90.57;97697.94;5044639;28;20484;-78
2023/01/13 07:44:12;;;;;;;5.82;1.50;;;;;;;5.65;90.82;97714.69;5056158;28;20273;-79
2023/01/13 07:46:38;;;;;;;5.20;1.10;;;;;;;5.71;90.93;97728.78;5047861;28;20032;-78
2023/01/13 07:49:04;;;;;;;5.40;1.42;;;;;;;5.71;90.40;97729.59;5049567;28;20036;-79
2023/01/13 07:51:30;;;;;;;7.93;1.65;;;;;;;5.67;91.10;97738.25;5044704;28;20029;-78
2023/01/13 07:53:55;;;;;;;5.38;1.70;;;;;;;5.77;90.30;97733.09;5061100;28;20043;-79
2023/01/13 07:56:21;;;;;;;9.20;2.08;;;;;;;5.75;90.67;97736.00;5069114;28;20469;-79
2023/01/13 07:58:49;;;;;;;7.47;1.27;;;;;;;5.67;89.91;97735.63;5072775;28;20032;-79
2023/01/13 08:01:16;;;;;;;6.70;1.38;;;;;;;5.79;90.68;97744.25;5056012;28;20020;-79
2023/01/13 08:03:42;;;;;;;6.78;1.50;;;;;;;5.83;89.60;97751.44;5043924;28;20043;-78
2023/01/13 08:06:09;;;;;;;8.43;1.67;;;;;;;5.73;89.66;97745.22;5076625;28;20454;-78
2023/01/13 08:08:34;;;;;;;8.93;1.75;;;;;;;5.53;90.35;97753.69;5037331;28;20105;-79
2023/01/13 08:11:01;;;;;;;7.45;1.38;;;;;;;5.57;91.13;97741.56;5056613;28;20020;-78
2023/01/13 08:13:26;;;;;;;7.68;1.73;;;;;;;5.57;91.02;97746.06;5062055;28;20039;-78
2023/01/13 08:15:58;;;;;;;6.13;2.00;;;;;;;5.43;90.13;97753.53;5064512;28;20032;-78
2023/01/13 08:18:23;;;;;;;7.38;1.55;;;;;;;5.46;89.93;97749.63;5084827;28;20029;-78
2023/01/13 08:20:51;;;;;;;16.23;1.98;;;;;;;5.48;91.64;97747.53;5047868;28;20400;-78
2023/01/13 08:23:17;;;;;;;6.22;1.73;;;;;;;5.78;90.59;97761.19;5061315;28;20122;-78
2023/01/13 08:25:43;;;;;;;5.35;1.30;;;;;;;5.59;90.70;97768.56;5058479;28;20028;-78
2023/01/13 08:28:10;;;;;;;3.78;1.15;;;;;;;5.59;91.67;97776.53;5045610;28;20454;-78
2023/01/13 08:30:36;;;;;;;4.50;1.80;;;;;;;5.71;91.13;97777.25;5068196;28;20044;-78
2023/01/13 08:33:06;;;;;;;7.00;1.48;;;;;;;5.56;90.38;97779.66;5040311;28;20036;-78
2023/01/13 08:35:31;;;;;;;6.88;3.53;;;;;;;5.56;90.57;97790.25;5060320;28;20082;-78
2023/01/13 08:37:56;;;;;;;9.73;2.40;;;;;;;5.51;90.47;97786.72;5038073;28;20392;-78
2023/01/13 08:40:22;;;;;;;7.88;1.42;;;;;;;5.53;90.95;97777.50;5021673;28;20034;-78
2023/01/13 08:42:47;;;;;;;5.25;1.40;;;;;;;5.76;90.16;97790.56;5064245;28;20048;-78
2023/01/13 08:45:13;;;;;;;6.18;1.50;;;;;;;5.58;90.17;97769.63;5069254;28;20035;-78
2023/01/13 08:47:39;;;;;;;4.10;1.75;;;;;;;5.80;89.88;97790.88;5031821;28;20039;-78
2023/01/13 08:50:06;;;;;;;10.68;1.88;;;;;;;5.72;90.13;97776.19;5035949;28;20036;-78
2023/01/13 08:52:31;;;;;;;13.98;1.63;;;;;;;5.64;88.97;97792.47;5074226;28;20051;-78
2023/01/13 08:54:57;;;;;;;4.30;1.55;;;;;;;5.52;89.34;97794.44;5041467;28;20107;-78
2023/01/13 08:57:22;;;;;;;4.45;1.42;;;;;;;5.60;89.95;97794.00;5018421;28;20036;-78
2023/01/13 08:59:47;;;;;;;4.53;1.30;;;;;;;5.80;89.80;97806.75;5053749;28;20032;-78
2023/01/13 09:02:15;;;;;;;6.72;1.77;;;;;;;5.78;89.73;97803.53;5032021;28;20035;-78
2023/01/13 09:04:41;;;;;;;6.28;1.25;;;;;;;5.64;89.80;97794.31;5068250;28;20056;-78
2023/01/13 09:07:07;;;;;;;6.38;1.42;;;;;;;5.69;89.55;97805.00;5051613;28;20107;-78
2023/01/13 09:09:33;;;;;;;4.88;1.70;;;;;;;5.88;90.45;97809.00;5054315;28;20115;-78
2023/01/13 09:14:42;;;;;;;3.38;1.48;;;;;;;5.74;89.75;97813.81;5066135;28;20039;-78
2023/01/13 09:17:08;;;;;;;2.92;1.67;;;;;;;5.80;89.38;97820.78;5055397;28;20041;-78
2023/01/13 09:19:33;;;;;;;2.65;1.33;;;;;;;5.73;90.11;97816.69;5072619;28;20060;-78
2023/01/13 09:21:59;;;;;;;9.23;1.67;;;;;;;5.75;89.35;97825.19;5063978;28;20115;-78
2023/01/13 09:24:25;;;;;;;9.65;1.60;;;;;;;5.74;89.56;97816.47;5039433;28;20041;-78
2023/01/13 09:26:51;;;;;;;3.95;1.70;;;;;;;5.83;89.20;97832.75;5085299;28;20568;-78
2023/01/13 09:29:16;;;;;;;6.47;2.20;;;;;;;5.76;89.78;97811.75;5069834;28;20039;-78
2023/01/13 09:31:42;;;;;;;9.77;1.83;;;;;;;5.72;89.75;97809.81;5028291;28;20472;-78
2023/01/13 09:37:02;;;;;;;6.78;1.90;;;;;;;5.74;89.72;97827.06;5072711;28;20035;-78
2023/01/13 09:39:27;;;;;;;7.05;1.30;;;;;;;5.76;89.60;97818.88;5053518;28;20404;-78
2023/01/13 09:45:04;;;;;;;3.50;1.70;;;;;;;5.81;88.86;97824.25;5077089;28;20036;-78
2023/01/13 09:47:43;;;;;;;4.47;1.90;;;;;;;5.89;89.61;97837.91;5062972;28;20048;-78
2023/01/13 09:50:32;;;;;;;5.60;1.70;;;;;;;5.92;89.09;97844.53;5054993;28;20036;-78
2023/01/13 09:52:59;;;;;;;5.57;2.13;;;;;;;5.74;89.01;97815.66;5063980;28;20025;-78
2023/01/13 09:55:35;;;;;;;3.47;1.52;;;;;;;5.79;89.15;97835.06;5048627;28;20518;-78
2023/01/13 09:58:02;;;;;;;;;;;;;;;5.83;88.96;97840.69;5066477;28;20331;-78
2023/01/13 10:00:39;;;;;;;8.30;1.38;;;;;;;5.82;89.05;97829.28;5081844;28;20001;-78
2023/01/13 10:03:17;;;;;;;6.45;1.70;;;;;;;5.89;89.48;97848.50;5065594;28;20048;-78
2023/01/13 10:06:03;;;;;;;7.00;2.20;;;;;;;5.85;89.03;97847.34;5066684;28;20025;-78
2023/01/13 10:08:32;;;;;;;6.70;2.00;;;;;;;5.87;88.88;97858.53;5080376;28;20031;-78
2023/01/13 10:13:13;;;;;;;4.97;1.58;;;;;;;5.89;89.60;97864.38;5076290;28;20473;-78
2023/01/13 10:13:56;;;;;;;;;;;;;;;5.89;89.63;97859.09;5062838;28;20037;-78
2023/01/13 10:16:41;;;;;;;7.10;2.03;;;;;;;5.96;89.85;97849.09;5066803;28;20012;-78
2023/01/13 10:19:16;;;;;;;4.72;1.80;;;;;;;5.96;88.46;97854.41;5072526;28;20395;-78
2023/01/13 10:22:03;;;;;;;4.43;1.50;;;;;;;6.04;89.99;97855.84;5069301;28;20127;-78
2023/01/13 10:24:47;;;;;;;5.60;1.48;;;;;;;6.07;89.64;97860.69;5067285;28;20369;-78
2023/01/13 10:27:30;;;;;;;3.95;2.30;;;;;;;6.10;89.67;97849.56;5063159;28;20075;-78
2023/01/13 10:29:56;;;;;;;9.10;2.00;;;;;;;6.10;89.71;97843.47;5040622;28;20029;-78
2023/01/13 10:32:22;;;;;;;4.07;1.42;;;;;;;6.08;89.71;97843.72;5058948;28;20060;-78
2023/01/13 10:34:50;;;;;;;7.10;1.73;;;;;;;6.13;89.36;97848.28;5049353;28;20037;-78
2023/01/13 10:37:26;;;;;;;11.02;2.15;;;;;;;6.21;89.78;97850.50;5047408;28;20035;-78
2023/01/13 10:39:59;;;;;;;10.93;1.85;;;;;;;6.17;88.29;97833.50;5090501;28;20032;-78
2023/01/13 10:42:27;;;;;;;4.85;1.50;;;;;;;6.29;87.86;97850.88;5041722;28;20029;-78
2023/01/13 10:44:55;;;;;;;4.45;1.75;;;;;;;6.25;86.92;97836.53;5056764;28;20086;-78
2023/01/13 10:47:33;;;;;;;6.18;1.30;;;;;;;6.21;86.30;97853.16;5076587;28;20033;-78
2023/01/13 10:50:05;;;;;;;13.45;1.77;;;;;;;6.33;86.64;97854.66;5070138;28;20032;-78
2023/01/13 10:52:35;;;;;;;6.95;1.23;;;;;;;6.24;87.64;97839.44;5076244;28;20051;-78
2023/01/13 10:55:01;;;;;;;9.32;1.83;;;;;;;6.31;87.10;97858.59;5071573;28;20456;-78
2023/01/13 10:57:27;;;;;;;5.85;1.92;;;;;;;6.35;87.07;97841.97;5043900;28;20347;-78
2023/01/13 10:59:53;;;;;;;4.82;1.48;;;;;;;6.38;85.43;97848.59;5082854;28;20061;-78
2023/01/13 11:02:29;;;;;;;5.20;1.60;;;;;;;6.31;85.52;97859.38;5077685;28;20053;-78
2023/01/13 11:04:54;;;;;;;4.55;1.60;;;;;;;6.32;85.54;97852.25;5055922;28;20121;-78
2023/01/13 11:07:37;;;;;;;5.75;1.90;;;;;;;6.30;84.84;97849.03;5073505;28;20066;-78
2023/01/13 11:10:09;;;;;;;12.20;2.30;;;;;;;6.27;85.71;97839.72;5073600;28;20032;-78
2023/01/13 11:12:58;;;;;;;10.85;2.08;;;;;;;6.45;84.87;97850.03;5049729;28;20029;-78
2023/01/13 11:15:39;;;;;;;5.13;1.85;;;;;;;6.37;83.94;97842.53;5054718;28;20036;-78
2023/01/13 11:18:42;;;;;;;6.75;1.98;;;;;;;6.57;83.75;97845.44;5044779;28;20029;-78
2023/01/13 11:21:23;;;;;;;4.72;2.30;;;;;;;6.51;83.28;97848.28;5052642;28;20024;-78
2023/01/13 11:24:13;;;;;;;4.75;1.85;;;;;;;6.58;83.31;97836.41;5072914;28;20025;-78
2023/01/13 11:26:52;;;;;;;2.78;1.35;;;;;;;6.46;82.64;97842.91;5046781;28;20085;-78
2023/01/13 11:29:28;;;;;;;7.78;1.92;;;;;;;6.42;84.30;97847.09;5075307;28;20430;-78
2023/01/13 11:32:06;;;;;;;7.35;2.25;;;;;;;6.43;84.14;97861.94;5068340;28;20035;-78
2023/01/13 11:34:36;;;;;;;7.93;1.48;;;;;;;6.41;84.83;97854.22;5068674;28;20025;-78
2023/01/13 11:37:11;;;;;;;12.18;2.25;;;;;;;6.35;84.73;97854.41;5071273;28;20089;-78
2023/01/13 11:40:05;;;;;;;10.67;2.17;;;;;;;6.26;85.55;97854.03;5066035;28;20107;-78
2023/01/13 11:42:48;;;;;;;7.05;1.95;;;;;;;6.32;85.22;97849.59;5072640;28;20488;-78
2023/01/13 11:45:22;;;;;;;5.30;2.20;;;;;;;6.35;85.28;97854.41;5056678;28;20016;-78
2023/01/13 11:47:50;;;;;;;5.47;1.88;;;;;;;6.38;85.44;97846.75;5055309;28;20377;-78
2023/01/13 11:50:52;;;;;;;6.00;1.70;;;;;;;6.33;85.21;97845.91;5075081;28;20438;-78
2023/01/13 11:53:21;;;;;;;6.88;2.33;;;;;;;6.26;85.39;97840.78;5079910;28;20152;-78
2023/01/13 11:56:07;;;;;;;4.55;2.67;;;;;;;6.26;85.80;97847.94;5066957;28;20514;-78
2023/01/13 11:59:01;;;;;;;7.78;2.28;;;;;;;6.36;84.29;97848.06;5054974;28;20253;-78
2023/01/13 12:01:42;;;;;;;6.50;2.15;;;;;;;6.37;84.02;97847.03;5067080;28;20029;-78
2023/01/13 12:04:38;;;;;;;7.15;2.42;;;;;;;6.29;84.85;97853.53;5055076;28;20036;-78
2023/01/13 12:07:18;;;;;;;6.03;1.67;;;;;;;6.37;85.09;97868.22;5080220;28;20388;-78
2023/01/13 12:09:52;;;;;;;8.82;2.13;;;;;;;6.30;85.70;97865.75;5079928;28;20442;-79
2023/01/13 12:12:31;;;;;;;4.93;1.20;;;;;;;6.25;86.50;97863.03;5071313;28;20166;-79
2023/01/13 12:15:12;;;;;;;10.63;3.15;;;;;;;6.29;86.18;97871.31;5086542;28;20077;-79
2023/01/13 12:17:50;;;;;;;8.00;2.25;;;;;;;6.16;86.87;97885.69;5043704;28;20033;-79
2023/01/13 12:20:15;;;;;;;9.77;2.17;;;;;;;6.17;87.02;97881.19;5062727;28;20020;-80
2023/01/13 12:22:45;;;;;;;6.38;2.17;;;;;;;6.23;87.27;97886.31;5045501;28;20502;-79
2023/01/13 12:25:26;;;;;;;5.82;2.28;;;;;;;6.13;87.34;97894.13;5037650;28;20485;-80
2023/01/13 12:27:56;;;;;;;10.23;2.38;;;;;;;6.10;87.57;97862.00;5050435;28;20684;-79
2023/01/13 12:30:57;;;;;;;7.45;1.98;;;;;;;6.16;87.98;97882.25;5047383;28;20028;-79
2023/01/13 12:33:41;;;;;;;9.23;2.85;;;;;;;6.23;87.59;97865.13;5046219;28;20086;-80
2023/01/13 12:36:43;;;;;;;13.90;3.00;;;;;;;6.22;87.85;97878.63;5044006;28;20483;-80